Izumo Princess — SXMB — position and weather

sailwx.info

Track history (hours):
 
Tides and Currents Weather Stations Pressure Air Temp Water Temp Dewpoint Dewpoint Depression Visibility Wind Speed Wind Dir Waves Ship Positions

Izumo Princess

Last reported at 2017-Jun-16 19:14 UTC. Time now 2017-Jun-23 13:42 UTC.
Position N 35°25' E 029°06'.

Length 229 m; draft 13 m.

Type: Tanker. MMSI: 240611000.

Date/timePositionNaut miles runAvg speedWind from/ knotsBaromVisibWave heightAir tempDewpointWater temp
2017-Jun-16 19:14N 35°25' E 029°06'1112.4
2017-Jun-16 18:21N 35°25' E 029°20'812.4
2017-Jun-16 17:40N 35°26' E 029°30'612.5
2017-Jun-16 17:10N 35°26' E 029°38'1212.3
2017-Jun-16 16:14N 35°27' E 029°52'312.4
2017-Jun-16 15:58N 35°27' E 029°56'1612.3
2017-Jun-16 14:39N 35°28' E 030°16'712.3
2017-Jun-16 14:07N 35°29' E 030°24'812.4
2017-Jun-16 13:30N 35°30' E 030°33'612.6
2017-Jun-16 13:00N 35°30' E 030°41'612.8
2017-Jun-16 12:30N 35°30' E 030°49'1112.7
2017-Jun-16 11:38N 35°31' E 031°02'512.5
2017-Jun-16 11:17N 35°31' E 031°08'1712.7
2017-Jun-16 09:56N 35°33' E 031°29'  
2017-Jun-13 20:44N 36°01' E 035°25'0 0.5
2017-Jun-13 20:29N 36°01' E 035°24'0 0.6
2017-Jun-13 19:59N 36°01' E 035°24'0 0.6
2017-Jun-13 19:29N 36°00' E 035°24'0 0.6
2017-Jun-13 18:59N 36°00' E 035°23'0 1.0
2017-Jun-13 18:29N 35°60' E 035°23'1 0.9
2017-Jun-13 17:56N 35°59' E 035°23'0 0.9
2017-Jun-13 17:26N 35°59' E 035°23'0 1.1
2017-Jun-13 16:59N 35°58' E 035°22'1 1.1
2017-Jun-13 16:29N 35°58' E 035°22'1 1.1
2017-Jun-13 15:59N 35°57' E 035°22'0 0.9
2017-Jun-13 15:29N 35°57' E 035°22'1 1.1
2017-Jun-13 14:59N 35°56' E 035°22'1 1.1
2017-Jun-13 13:53N 35°55' E 035°21'0 1.1
2017-Jun-13 13:29N 35°55' E 035°21'37 0.9
2017-Jun-11 18:23N 35°26' E 034°53'0 0.5
2017-Jun-11 17:59N 35°26' E 034°53'0 0.6
2017-Jun-11 17:17N 35°25' E 034°53'1 0.7
2017-Jun-11 16:11N 35°25' E 034°52'1 0.8
2017-Jun-11 15:17N 35°24' E 034°51'0 0.9
2017-Jun-11 14:59N 35°24' E 034°51'0 0.9
2017-Jun-11 14:29N 35°23' E 034°51'1 1.0
2017-Jun-11 13:29N 35°23' E 034°50'20 1.0
2017-Jun-10 17:29N 35°02' E 034°51'1 1.4
2017-Jun-10 16:56N 35°02' E 034°51'1 1.4
2017-Jun-10 16:17N 35°01' E 034°50'1 1.4
2017-Jun-10 15:50N 35°00' E 034°50'1 1.4
2017-Jun-10 15:29N 34°60' E 034°50'20 1.2
2017-Jun-09 22:44N 34°40' E 034°44'2 1.5
2017-Jun-09 21:20N 34°38' E 034°42'1 1.4
2017-Jun-09 20:59N 34°38' E 034°42'1 1.4
2017-Jun-09 20:26N 34°37' E 034°42'1 1.4
2017-Jun-09 19:59N 34°36' E 034°42'1 1.3
2017-Jun-09 19:17N 34°36' E 034°41'0 1.3
2017-Jun-09 18:59N 34°35' E 034°41'1 1.1
2017-Jun-09 18:29N 34°35' E 034°41'1 1.1
2017-Jun-09 17:59N 34°34' E 034°40'1 1.0
2017-Jun-09 17:29N 34°34' E 034°40'1 1.1
2017-Jun-09 16:59N 34°33' E 034°40'1 1.0
2017-Jun-09 16:29N 34°33' E 034°39'1 1.1
2017-Jun-09 15:59N 34°33' E 034°39'1 1.2
2017-Jun-09 15:29N 34°32' E 034°38'1 1.5
2017-Jun-09 14:59N 34°32' E 034°37'1 1.3
2017-Jun-09 14:29N 34°32' E 034°36'2 1.2
2017-Jun-09 13:05N 34°33' E 034°34'0 1.1
2017-Jun-09 12:59N 34°33' E 034°34'1 1.1
2017-Jun-09 12:29N 34°33' E 034°34'1 1.1
2017-Jun-09 11:59N 34°33' E 034°33'1 1.1
2017-Jun-09 11:23N 34°33' E 034°32'0 1.0
2017-Jun-09 10:59N 34°33' E 034°32'0 1.0
2017-Jun-09 10:29N 34°33' E 034°31'0 1.0
2017-Jun-09 09:59N 34°33' E 034°31'1 1.0
2017-Jun-09 09:29N 34°33' E 034°30'0 0.8
2017-Jun-09 08:59N 34°33' E 034°30'0 0.7
2017-Jun-09 08:29N 34°33' E 034°29'0 0.7
2017-Jun-09 07:59N 34°33' E 034°29'0 0.7
2017-Jun-09 07:29N 34°33' E 034°28'0 0.6
2017-Jun-09 06:59N 34°32' E 034°28'0 0.6
2017-Jun-09 06:29N 34°32' E 034°28'0 0.6
2017-Jun-09 05:59N 34°32' E 034°28'0 0.7
2017-Jun-09 05:29N 34°32' E 034°27'0 0.6
2017-Jun-09 04:59N 34°31' E 034°27'0 0.5
2017-Jun-09 04:29N 34°31' E 034°27'0 0.5
2017-Jun-09 03:59N 34°31' E 034°27'0 0.5
2017-Jun-09 03:29N 34°31' E 034°27'0 0.4
2017-Jun-09 02:59N 34°30' E 034°27'0 0.4
2017-Jun-09 02:29N 34°30' E 034°27'0 0.3
2017-Jun-09 01:59N 34°30' E 034°27'0 0.2
2017-Jun-09 01:29N 34°30' E 034°27'0 0.2
2017-Jun-09 01:00N 34°30' E 034°27'0 0.2
2017-Jun-09 00:30N 34°30' E 034°27'0 0.2
2017-Jun-09 00:00N 34°30' E 034°27'0 0.1
2017-Jun-08 23:30N 34°30' E 034°27'0 0.0
2017-Jun-08 23:00N 34°30' E 034°27'0 0.1
2017-Jun-08 22:30N 34°30' E 034°27'0 0.3
2017-Jun-08 22:00N 34°30' E 034°27'0 0.5
2017-Jun-08 21:30N 34°30' E 034°27'1 1.7
2017-Jun-08 21:00N 34°29' E 034°26'3 6.2
2017-Jun-08 20:30N 34°26' E 034°25'510.1
2017-Jun-08 20:00N 34°21' E 034°23'510.4
2017-Jun-08 19:30N 34°16' E 034°21'510.7
2017-Jun-08 19:00N 34°11' E 034°19'510.5
2017-Jun-08 18:30N 34°06' E 034°17'510.2
2017-Jun-08 18:00N 34°01' E 034°16'510.1
2017-Jun-08 17:30N 33°56' E 034°14'5 9.9
2017-Jun-08 17:00N 33°52' E 034°12'5 9.9
2017-Jun-08 16:30N 33°47' E 034°10'5 9.8
2017-Jun-08 16:00N 33°43' E 034°08'5 9.6
2017-Jun-08 15:30N 33°38' E 034°06'5 9.7
2017-Jun-08 15:00N 33°33' E 034°03'5 9.8
2017-Jun-08 14:30N 33°29' E 034°01'9 9.4
2017-Jun-08 13:30N 33°20' E 033°58'5 9.6
2017-Jun-08 13:00N 33°15' E 033°58'5 9.8
2017-Jun-08 12:30N 33°10' E 033°58'5 9.9
2017-Jun-08 12:00N 33°05' E 033°58'  
Track history (hours):
 
Tides and Currents Weather Stations Pressure Air Temp Water Temp Dewpoint Dewpoint Depression Visibility Wind Speed Wind Dir Waves Ship Positions

Izumo Princess

Last reported at 2017-Jun-16 19:14 UTC. Time now 2017-Jun-23 13:42 UTC.
Position N 35°25' E 029°06'.

Length 229 m; draft 13 m.

Type: Tanker. MMSI: 240611000.

Date/timePositionNaut miles runAvg speedWind from/ knotsBaromVisibWave heightAir tempDewpointWater temp
2017-Jun-16 19:14N 35°25' E 029°06'1112.4
2017-Jun-16 18:21N 35°25' E 029°20'812.4
2017-Jun-16 17:40N 35°26' E 029°30'612.5
2017-Jun-16 17:10N 35°26' E 029°38'1212.3
2017-Jun-16 16:14N 35°27' E 029°52'312.4
2017-Jun-16 15:58N 35°27' E 029°56'1612.3
2017-Jun-16 14:39N 35°28' E 030°16'712.3
2017-Jun-16 14:07N 35°29' E 030°24'812.4
2017-Jun-16 13:30N 35°30' E 030°33'612.6
2017-Jun-16 13:00N 35°30' E 030°41'612.8
2017-Jun-16 12:30N 35°30' E 030°49'1112.7
2017-Jun-16 11:38N 35°31' E 031°02'512.5
2017-Jun-16 11:17N 35°31' E 031°08'1712.7
2017-Jun-16 09:56N 35°33' E 031°29'  
2017-Jun-13 20:44N 36°01' E 035°25'0 0.5
2017-Jun-13 20:29N 36°01' E 035°24'0 0.6
2017-Jun-13 19:59N 36°01' E 035°24'0 0.6
2017-Jun-13 19:29N 36°00' E 035°24'0 0.6
2017-Jun-13 18:59N 36°00' E 035°23'0 1.0
2017-Jun-13 18:29N 35°60' E 035°23'1 0.9
2017-Jun-13 17:56N 35°59' E 035°23'0 0.9
2017-Jun-13 17:26N 35°59' E 035°23'0 1.1
2017-Jun-13 16:59N 35°58' E 035°22'1 1.1
2017-Jun-13 16:29N 35°58' E 035°22'1 1.1
2017-Jun-13 15:59N 35°57' E 035°22'0 0.9
2017-Jun-13 15:29N 35°57' E 035°22'1 1.1
2017-Jun-13 14:59N 35°56' E 035°22'1 1.1
2017-Jun-13 13:53N 35°55' E 035°21'0 1.1
2017-Jun-13 13:29N 35°55' E 035°21'37 0.9
2017-Jun-11 18:23N 35°26' E 034°53'0 0.5
2017-Jun-11 17:59N 35°26' E 034°53'0 0.6
2017-Jun-11 17:17N 35°25' E 034°53'1 0.7
2017-Jun-11 16:11N 35°25' E 034°52'1 0.8
2017-Jun-11 15:17N 35°24' E 034°51'0 0.9
2017-Jun-11 14:59N 35°24' E 034°51'0 0.9
2017-Jun-11 14:29N 35°23' E 034°51'1 1.0
2017-Jun-11 13:29N 35°23' E 034°50'20 1.0
2017-Jun-10 17:29N 35°02' E 034°51'1 1.4
2017-Jun-10 16:56N 35°02' E 034°51'1 1.4
2017-Jun-10 16:17N 35°01' E 034°50'1 1.4
2017-Jun-10 15:50N 35°00' E 034°50'1 1.4
2017-Jun-10 15:29N 34°60' E 034°50'20 1.2
2017-Jun-09 22:44N 34°40' E 034°44'2 1.5
2017-Jun-09 21:20N 34°38' E 034°42'1 1.4
2017-Jun-09 20:59N 34°38' E 034°42'1 1.4
2017-Jun-09 20:26N 34°37' E 034°42'1 1.4
2017-Jun-09 19:59N 34°36' E 034°42'1 1.3
2017-Jun-09 19:17N 34°36' E 034°41'0 1.3
2017-Jun-09 18:59N 34°35' E 034°41'1 1.1
2017-Jun-09 18:29N 34°35' E 034°41'1 1.1
2017-Jun-09 17:59N 34°34' E 034°40'1 1.0
2017-Jun-09 17:29N 34°34' E 034°40'1 1.1
2017-Jun-09 16:59N 34°33' E 034°40'1 1.0
2017-Jun-09 16:29N 34°33' E 034°39'1 1.1
2017-Jun-09 15:59N 34°33' E 034°39'1 1.2
2017-Jun-09 15:29N 34°32' E 034°38'1 1.5
2017-Jun-09 14:59N 34°32' E 034°37'1 1.3
2017-Jun-09 14:29N 34°32' E 034°36'2 1.2
2017-Jun-09 13:05N 34°33' E 034°34'0 1.1
2017-Jun-09 12:59N 34°33' E 034°34'1 1.1
2017-Jun-09 12:29N 34°33' E 034°34'1 1.1
2017-Jun-09 11:59N 34°33' E 034°33'1 1.1
2017-Jun-09 11:23N 34°33' E 034°32'0 1.0
2017-Jun-09 10:59N 34°33' E 034°32'0 1.0
2017-Jun-09 10:29N 34°33' E 034°31'0 1.0
2017-Jun-09 09:59N 34°33' E 034°31'1 1.0
2017-Jun-09 09:29N 34°33' E 034°30'0 0.8
2017-Jun-09 08:59N 34°33' E 034°30'0 0.7
2017-Jun-09 08:29N 34°33' E 034°29'0 0.7
2017-Jun-09 07:59N 34°33' E 034°29'0 0.7
2017-Jun-09 07:29N 34°33' E 034°28'0 0.6
2017-Jun-09 06:59N 34°32' E 034°28'0 0.6
2017-Jun-09 06:29N 34°32' E 034°28'0 0.6
2017-Jun-09 05:59N 34°32' E 034°28'0 0.7
2017-Jun-09 05:29N 34°32' E 034°27'0 0.6
2017-Jun-09 04:59N 34°31' E 034°27'0 0.5
2017-Jun-09 04:29N 34°31' E 034°27'0 0.5
2017-Jun-09 03:59N 34°31' E 034°27'0 0.5
2017-Jun-09 03:29N 34°31' E 034°27'0 0.4
2017-Jun-09 02:59N 34°30' E 034°27'0 0.4
2017-Jun-09 02:29N 34°30' E 034°27'0 0.3
2017-Jun-09 01:59N 34°30' E 034°27'0 0.2
2017-Jun-09 01:29N 34°30' E 034°27'0 0.2
2017-Jun-09 01:00N 34°30' E 034°27'0 0.2
2017-Jun-09 00:30N 34°30' E 034°27'0 0.2
2017-Jun-09 00:00N 34°30' E 034°27'0 0.1
2017-Jun-08 23:30N 34°30' E 034°27'0 0.0
2017-Jun-08 23:00N 34°30' E 034°27'0 0.1
2017-Jun-08 22:30N 34°30' E 034°27'0 0.3
2017-Jun-08 22:00N 34°30' E 034°27'0 0.5
2017-Jun-08 21:30N 34°30' E 034°27'1 1.7
2017-Jun-08 21:00N 34°29' E 034°26'3 6.2
2017-Jun-08 20:30N 34°26' E 034°25'510.1
2017-Jun-08 20:00N 34°21' E 034°23'510.4
2017-Jun-08 19:30N 34°16' E 034°21'510.7
2017-Jun-08 19:00N 34°11' E 034°19'510.5
2017-Jun-08 18:30N 34°06' E 034°17'510.2
2017-Jun-08 18:00N 34°01' E 034°16'510.1
2017-Jun-08 17:30N 33°56' E 034°14'5 9.9
2017-Jun-08 17:00N 33°52' E 034°12'5 9.9
2017-Jun-08 16:30N 33°47' E 034°10'5 9.8
2017-Jun-08 16:00N 33°43' E 034°08'5 9.6
2017-Jun-08 15:30N 33°38' E 034°06'5 9.7
2017-Jun-08 15:00N 33°33' E 034°03'5 9.8
2017-Jun-08 14:30N 33°29' E 034°01'9 9.4
2017-Jun-08 13:30N 33°20' E 033°58'5 9.6
2017-Jun-08 13:00N 33°15' E 033°58'5 9.8
2017-Jun-08 12:30N 33°10' E 033°58'5 9.9
2017-Jun-08 12:00N 33°05' E 033°58'  

Dump ship's entire track history